createdAt,value
2018-11-26T00:00:23.977Z,89.70
2018-11-26T00:02:52.759Z,89.70
2018-11-26T00:05:21.419Z,89.60
2018-11-26T00:07:50.089Z,89.60
2018-11-26T00:10:29.819Z,89.70
2018-11-26T00:12:58.526Z,89.50
2018-11-26T00:15:27.674Z,89.50
2018-11-26T00:17:56.481Z,89.50
2018-11-26T00:20:25.164Z,89.50
2018-11-26T00:22:54.084Z,89.60
2018-11-26T00:25:22.748Z,89.60
2018-11-26T00:27:52.400Z,89.70
2018-11-26T00:30:21.511Z,89.80
2018-11-26T00:32:50.556Z,89.80
2018-11-26T00:35:19.295Z,89.80
2018-11-26T00:37:48.148Z,89.90
2018-11-26T00:40:24.691Z,89.90
2018-11-26T00:42:53.477Z,89.90
2018-11-26T00:45:22.214Z,89.90
2018-11-26T00:47:50.986Z,89.90
2018-11-26T00:50:19.665Z,90.00
2018-11-26T00:52:48.359Z,90.10
2018-11-26T00:55:17.288Z,90.10
2018-11-26T00:57:46.247Z,90.10
2018-11-26T01:00:15.012Z,90.10
2018-11-26T01:02:43.926Z,90.20
2018-11-26T01:05:48.884Z,90.20
2018-11-26T01:08:17.746Z,90.40
2018-11-26T01:10:46.482Z,90.50
2018-11-26T01:13:15.261Z,90.50
2018-11-26T01:15:43.970Z,90.60
2018-11-26T01:18:12.895Z,90.60
2018-11-26T01:20:41.616Z,90.80
2018-11-26T01:23:10.430Z,90.70
2018-11-26T01:25:39.377Z,90.80
2018-11-26T01:28:08.608Z,90.70
2018-11-26T01:30:38.020Z,90.80
2018-11-26T01:33:06.791Z,90.80
2018-11-26T01:35:35.528Z,90.80
2018-11-26T01:38:04.353Z,90.90
2018-11-26T01:40:38.242Z,90.90
2018-11-26T01:43:08.874Z,90.90
2018-11-26T01:45:37.741Z,90.90
2018-11-26T01:48:06.668Z,91.00
2018-11-26T01:50:35.390Z,91.00
2018-11-26T01:53:04.583Z,91.00
2018-11-26T01:55:33.403Z,91.00
2018-11-26T01:58:02.217Z,91.00
2018-11-26T02:00:31.124Z,91.00
2018-11-26T02:02:59.858Z,90.90
2018-11-26T02:05:29.126Z,90.90
2018-11-26T02:07:57.970Z,91.00
2018-11-26T02:10:26.738Z,91.00
2018-11-26T02:12:56.531Z,91.00
2018-11-26T02:15:43.321Z,91.20
2018-11-26T02:18:12.518Z,91.20
2018-11-26T02:20:41.250Z,91.20
2018-11-26T02:23:10.126Z,91.20
2018-11-26T02:25:38.956Z,91.30
2018-11-26T02:28:08.304Z,91.30
2018-11-26T02:30:37.391Z,91.30
2018-11-26T02:33:06.688Z,91.40
2018-11-26T02:35:35.470Z,91.30
2018-11-26T02:38:04.334Z,91.40
2018-11-26T02:40:33.916Z,91.40
2018-11-26T02:43:02.677Z,91.50
2018-11-26T02:45:31.443Z,91.50
2018-11-26T02:48:00.274Z,91.60
2018-11-26T02:50:29.225Z,91.60
2018-11-26T02:52:58.588Z,91.80
2018-11-26T02:55:27.640Z,91.70
2018-11-26T02:57:56.849Z,91.90
2018-11-26T03:00:25.622Z,91.90
2018-11-26T03:02:54.355Z,91.90
2018-11-26T03:05:27.185Z,92.00
2018-11-26T03:07:56.150Z,92.00
2018-11-26T03:10:24.883Z,92.00
2018-11-26T03:12:55.916Z,92.10
2018-11-26T03:15:24.601Z,92.00
2018-11-26T03:17:53.348Z,91.90
2018-11-26T03:20:22.107Z,91.90
2018-11-26T03:22:51.047Z,91.90
2018-11-26T03:25:19.804Z,91.80
2018-11-26T03:27:48.601Z,91.80
2018-11-26T03:30:20.508Z,91.80
2018-11-26T03:32:49.379Z,91.80
2018-11-26T03:35:18.362Z,91.80
2018-11-26T03:37:47.086Z,91.70
2018-11-26T03:40:16.807Z,91.70
2018-11-26T03:42:45.641Z,91.70
2018-11-26T03:45:15.760Z,91.80
2018-11-26T03:47:44.773Z,91.80
2018-11-26T03:50:14.426Z,91.90
2018-11-26T03:52:44.314Z,91.90
2018-11-26T03:55:13.779Z,91.90
2018-11-26T03:57:42.509Z,91.80
2018-11-26T04:00:14.197Z,91.90
2018-11-26T04:02:42.924Z,92.00
2018-11-26T04:05:12.086Z,91.90
2018-11-26T04:07:41.125Z,91.80
2018-11-26T04:10:11.183Z,91.90
2018-11-26T04:12:40.207Z,91.90
2018-11-26T04:15:11.877Z,91.90
2018-11-26T04:17:40.603Z,91.90
2018-11-26T04:20:09.727Z,91.90
2018-11-26T04:22:38.419Z,91.90
2018-11-26T04:25:08.468Z,91.90
2018-11-26T04:27:37.275Z,91.90
2018-11-26T04:30:08.450Z,91.90
2018-11-26T04:32:37.577Z,91.80
2018-11-26T04:35:06.994Z,91.80
2018-11-26T04:37:35.928Z,91.80
2018-11-26T04:40:05.184Z,91.80
2018-11-26T04:42:33.892Z,91.80
2018-11-26T04:45:02.686Z,91.80
2018-11-26T04:47:36.543Z,91.80
2018-11-26T04:50:07.313Z,91.80
2018-11-26T04:52:36.153Z,91.80
2018-11-26T04:55:05.352Z,91.90
2018-11-26T04:57:34.323Z,92.00
2018-11-26T05:00:02.967Z,92.10
2018-11-26T05:02:31.810Z,92.30
2018-11-26T05:05:00.614Z,92.50
2018-11-26T05:07:29.325Z,92.70
2018-11-26T05:09:58.088Z,92.90
2018-11-26T05:12:26.970Z,93.10
2018-11-26T05:14:55.767Z,93.20
2018-11-26T05:17:24.474Z,93.30
2018-11-26T05:19:53.248Z,93.40
2018-11-26T05:22:21.992Z,93.40
2018-11-26T05:24:50.814Z,93.50
2018-11-26T05:27:19.564Z,93.50
2018-11-26T05:29:48.268Z,93.70
2018-11-26T05:32:17.033Z,93.80
2018-11-26T05:34:45.816Z,93.90
2018-11-26T05:37:14.590Z,93.90
2018-11-26T05:39:43.407Z,93.90
2018-11-26T05:42:12.110Z,94.10
2018-11-26T05:44:40.916Z,94.10
2018-11-26T05:47:09.657Z,94.10
2018-11-26T05:49:38.444Z,94.20
2018-11-26T05:52:07.236Z,94.20
2018-11-26T05:54:36.137Z,94.20
2018-11-26T05:57:04.855Z,94.10
2018-11-26T05:59:33.602Z,94.10
2018-11-26T06:02:02.357Z,94.10
2018-11-26T06:04:31.147Z,93.90
2018-11-26T06:07:00.269Z,93.90
2018-11-26T06:09:29.295Z,93.80
2018-11-26T06:11:58.508Z,93.80
2018-11-26T06:14:27.329Z,93.80
2018-11-26T06:16:56.133Z,93.80
2018-11-26T06:19:24.923Z,93.80
2018-11-26T06:21:54.601Z,93.80
2018-11-26T06:24:23.367Z,94.20
2018-11-26T06:26:52.140Z,93.80
2018-11-26T06:29:20.989Z,93.60
2018-11-26T06:31:49.786Z,93.30
2018-11-26T06:34:18.504Z,93.20
2018-11-26T06:36:47.346Z,93.10
2018-11-26T06:39:16.487Z,93.10
2018-11-26T06:41:54.323Z,93.10
2018-11-26T06:44:26.715Z,93.10
2018-11-26T06:47:01.202Z,93.00
2018-11-26T06:49:30.050Z,93.00
2018-11-26T06:52:00.773Z,92.90
2018-11-26T06:54:47.845Z,92.80
2018-11-26T06:57:16.586Z,92.70
2018-11-26T06:59:45.412Z,92.60
2018-11-26T07:02:15.614Z,92.50
2018-11-26T07:04:44.719Z,92.30
2018-11-26T07:07:13.471Z,92.10
2018-11-26T07:09:42.329Z,92.00
2018-11-26T07:12:11.270Z,91.80
2018-11-26T07:14:40.118Z,91.90
2018-11-26T07:17:08.894Z,91.80
2018-11-26T07:19:37.704Z,91.90
2018-11-26T07:22:07.482Z,91.90
2018-11-26T07:24:36.284Z,91.90
2018-11-26T07:27:05.628Z,91.70
2018-11-26T07:29:34.366Z,91.70
2018-11-26T07:32:03.769Z,91.80
2018-11-26T07:34:32.790Z,91.70
2018-11-26T07:37:01.582Z,91.70
2018-11-26T07:39:30.455Z,91.50
2018-11-26T07:41:59.198Z,91.40
2018-11-26T07:44:27.982Z,91.30
2018-11-26T07:46:56.763Z,91.20
2018-11-26T07:49:25.512Z,91.20
2018-11-26T07:51:54.478Z,91.10
2018-11-26T07:54:23.220Z,91.00
2018-11-26T07:56:52.066Z,91.00
2018-11-26T07:59:20.907Z,90.70
2018-11-26T08:01:49.665Z,90.60
2018-11-26T08:04:18.422Z,90.70
2018-11-26T08:06:47.397Z,90.80
2018-11-26T08:09:16.176Z,90.80
2018-11-26T08:11:44.958Z,90.80
2018-11-26T08:14:14.000Z,90.60
2018-11-26T08:16:43.072Z,90.60
2018-11-26T08:19:12.588Z,90.60
2018-11-26T08:21:41.385Z,90.40
2018-11-26T08:24:10.370Z,90.20
2018-11-26T08:26:41.583Z,90.00
2018-11-26T08:29:10.361Z,89.80
2018-11-26T08:31:39.271Z,89.80
2018-11-26T08:34:13.126Z,89.70
2018-11-26T08:36:44.424Z,89.60
2018-11-26T08:39:20.272Z,89.60
2018-11-26T08:41:53.619Z,88.90
2018-11-26T08:44:27.881Z,89.10
2018-11-26T08:46:56.770Z,88.80
2018-11-26T08:49:27.182Z,88.90
2018-11-26T08:51:56.040Z,88.90
2018-11-26T08:54:24.788Z,88.90
2018-11-26T08:56:53.563Z,88.80
2018-11-26T08:59:22.253Z,88.60
2018-11-26T09:01:56.110Z,88.70
2018-11-26T09:04:30.289Z,88.10
2018-11-26T09:06:59.718Z,87.90
2018-11-26T09:09:32.945Z,87.70
2018-11-26T09:12:00.264Z,87.60
2018-11-26T09:14:29.044Z,87.00
2018-11-26T09:16:57.822Z,87.20
2018-11-26T09:19:26.582Z,87.00
2018-11-26T09:21:56.592Z,87.20
2018-11-26T09:24:25.462Z,87.40
2018-11-26T09:26:54.334Z,87.30
2018-11-26T09:29:25.722Z,87.00
2018-11-26T09:31:54.474Z,86.80
2018-11-26T09:34:23.309Z,86.70
2018-11-26T09:36:52.167Z,86.60
2018-11-26T09:39:20.968Z,86.50
2018-11-26T09:41:51.980Z,86.50
2018-11-26T09:44:20.757Z,86.60
2018-11-26T09:46:49.565Z,86.70
2018-11-26T09:49:18.353Z,86.60
2018-11-26T09:51:47.118Z,86.50
2018-11-26T09:54:15.953Z,86.50
2018-11-26T09:56:44.780Z,86.40
2018-11-26T09:59:13.631Z,86.30
2018-11-26T10:01:46.301Z,86.30
2018-11-26T10:04:15.035Z,86.30
2018-11-26T10:06:43.805Z,86.00
2018-11-26T10:09:12.574Z,85.90
2018-11-26T10:11:41.349Z,86.30
2018-11-26T10:14:10.084Z,86.20
2018-11-26T10:16:38.916Z,86.00
2018-11-26T10:19:07.661Z,86.30
2018-11-26T10:21:36.493Z,86.40
2018-11-26T10:24:05.377Z,86.60
2018-11-26T10:26:34.123Z,86.70
2018-11-26T10:29:02.949Z,86.80
2018-11-26T10:31:31.692Z,87.20
2018-11-26T10:34:00.414Z,87.80
2018-11-26T10:36:29.175Z,87.70
2018-11-26T10:38:57.969Z,88.00
2018-11-26T10:41:26.757Z,88.00
2018-11-26T10:43:55.539Z,87.90
2018-11-26T10:46:24.323Z,88.10
2018-11-26T10:48:53.290Z,88.30
2018-11-26T10:51:22.037Z,88.40
2018-11-26T10:53:50.840Z,88.40
2018-11-26T10:56:19.651Z,88.50
2018-11-26T10:58:48.420Z,88.60
2018-11-26T11:01:22.991Z,88.60
2018-11-26T11:03:51.843Z,88.70
2018-11-26T11:06:20.598Z,88.90
2018-11-26T11:08:49.344Z,88.70
2018-11-26T11:11:23.187Z,88.70
2018-11-26T11:13:46.971Z,88.60
2018-11-26T11:16:15.702Z,88.60
2018-11-26T11:18:44.609Z,88.70
2018-11-26T11:21:13.866Z,88.50
2018-11-26T11:23:42.333Z,88.50
2018-11-26T11:26:11.130Z,88.40
2018-11-26T11:28:39.839Z,88.50
2018-11-26T11:31:08.685Z,88.40
2018-11-26T11:33:38.537Z,88.40
2018-11-26T11:36:06.675Z,88.20
2018-11-26T11:38:35.442Z,87.60
2018-11-26T11:41:04.306Z,87.40
2018-11-26T11:43:33.088Z,87.40
2018-11-26T11:46:01.881Z,87.60
2018-11-26T11:48:30.717Z,87.20
2018-11-26T11:50:59.503Z,86.90
2018-11-26T11:53:28.271Z,87.00
2018-11-26T11:55:57.237Z,86.80
2018-11-26T11:58:25.967Z,86.70
2018-11-26T12:00:54.771Z,86.60
2018-11-26T12:03:23.564Z,86.80
2018-11-26T12:05:52.715Z,86.90
2018-11-26T12:08:21.559Z,87.10
2018-11-26T12:10:50.302Z,87.10
2018-11-26T12:13:19.103Z,87.00
2018-11-26T12:15:50.954Z,86.90
2018-11-26T12:18:19.801Z,86.90
2018-11-26T12:20:48.528Z,86.80
2018-11-26T12:23:17.309Z,86.80
2018-11-26T12:25:46.152Z,86.70
2018-11-26T12:28:15.055Z,86.70
2018-11-26T12:30:45.427Z,86.80
2018-11-26T12:33:14.172Z,87.00
2018-11-26T12:35:42.950Z,87.10
2018-11-26T12:38:11.778Z,86.70
2018-11-26T12:40:40.607Z,86.30
2018-11-26T12:43:10.065Z,86.30
2018-11-26T12:45:38.906Z,86.30
2018-11-26T12:48:08.830Z,86.50
2018-11-26T12:50:39.944Z,86.40
2018-11-26T12:53:11.082Z,86.20
2018-11-26T12:55:43.571Z,86.50
2018-11-26T12:58:18.936Z,86.60
2018-11-26T13:00:49.702Z,87.00
2018-11-26T13:03:18.542Z,87.10
2018-11-26T13:05:47.317Z,87.40
2018-11-26T13:08:17.057Z,87.90
2018-11-26T13:10:45.870Z,88.50
2018-11-26T13:13:14.743Z,89.30
2018-11-26T13:15:43.452Z,89.80
2018-11-26T13:18:12.288Z,90.20
2018-11-26T13:20:41.101Z,90.50
2018-11-26T13:23:10.632Z,90.80
2018-11-26T13:25:42.003Z,91.20
2018-11-26T13:28:09.809Z,91.50
2018-11-26T13:30:45.304Z,91.80
2018-11-26T13:33:15.955Z,92.10
2018-11-26T13:35:45.802Z,92.30
2018-11-26T13:38:14.617Z,92.40
2018-11-26T13:40:43.386Z,92.40
2018-11-26T13:43:14.904Z,92.50
2018-11-26T13:45:46.288Z,92.60
2018-11-26T13:48:16.828Z,92.60
2018-11-26T13:50:48.857Z,92.60
2018-11-26T13:53:17.669Z,92.50
2018-11-26T13:55:46.464Z,92.40
2018-11-26T13:58:15.815Z,92.30
2018-11-26T14:00:44.631Z,92.30
2018-11-26T14:03:13.821Z,92.30
2018-11-26T14:05:42.622Z,92.20
2018-11-26T14:08:11.396Z,92.10
2018-11-26T14:10:40.157Z,92.00
2018-11-26T14:13:10.958Z,92.10
2018-11-26T14:15:39.867Z,92.10
2018-11-26T14:18:08.563Z,92.20
2018-11-26T14:20:37.554Z,92.30
2018-11-26T14:23:07.016Z,92.30
2018-11-26T14:25:35.776Z,92.40
2018-11-26T14:28:06.329Z,92.40
2018-11-26T14:30:34.757Z,92.30
2018-11-26T14:33:03.641Z,92.40
2018-11-26T14:35:32.583Z,92.50
2018-11-26T14:38:04.083Z,92.70
2018-11-26T14:40:37.710Z,92.70
2018-11-26T14:43:06.876Z,92.70
2018-11-26T14:45:37.392Z,92.80
2018-11-26T14:48:06.912Z,92.90
2018-11-26T14:50:36.004Z,93.00
2018-11-26T14:53:06.105Z,93.10
2018-11-26T14:55:36.675Z,93.30
2018-11-26T14:58:05.950Z,93.40
2018-11-26T15:00:34.938Z,93.70
2018-11-26T15:03:05.540Z,93.90
2018-11-26T15:05:35.382Z,94.00
2018-11-26T15:08:05.734Z,94.20
2018-11-26T15:10:35.312Z,94.30
2018-11-26T15:13:10.234Z,94.60
2018-11-26T15:15:39.067Z,94.80
2018-11-26T15:18:07.902Z,94.90
2018-11-26T15:20:40.325Z,94.90
2018-11-26T15:23:11.363Z,95.00
2018-11-26T15:25:40.269Z,95.20
2018-11-26T15:28:11.703Z,95.40
2018-11-26T15:30:40.424Z,95.50
2018-11-26T15:33:10.043Z,95.50
2018-11-26T15:35:48.693Z,95.40
2018-11-26T15:38:18.673Z,95.40
2018-11-26T15:40:48.274Z,95.40
2018-11-26T15:43:17.232Z,95.50
2018-11-26T15:45:45.971Z,95.60
2018-11-26T15:48:14.791Z,95.50
2018-11-26T15:50:43.576Z,95.40
2018-11-26T15:53:12.401Z,95.50
2018-11-26T15:55:41.137Z,95.50
2018-11-26T15:58:10.699Z,95.50
2018-11-26T16:00:39.931Z,95.10
2018-11-26T16:03:09.257Z,94.90
2018-11-26T16:05:38.550Z,94.70
2018-11-26T16:08:13.632Z,94.80
2018-11-26T16:10:42.375Z,94.60
2018-11-26T16:13:13.265Z,94.60
2018-11-26T16:15:43.607Z,94.70
2018-11-26T16:18:14.543Z,94.60
2018-11-26T16:20:43.279Z,94.60
2018-11-26T16:23:16.960Z,94.60
2018-11-26T16:25:47.499Z,94.60
2018-11-26T16:28:20.266Z,94.70
2018-11-26T16:30:49.123Z,94.70
2018-11-26T16:33:18.535Z,94.60
2018-11-26T16:35:47.476Z,94.60
2018-11-26T16:38:16.339Z,94.70
2018-11-26T16:40:45.292Z,94.80
2018-11-26T16:43:15.118Z,94.80
2018-11-26T16:45:43.836Z,94.70
2018-11-26T16:48:12.720Z,94.70
2018-11-26T16:50:42.014Z,94.60
2018-11-26T16:53:10.793Z,94.60
2018-11-26T16:55:40.142Z,94.60
2018-11-26T16:58:08.892Z,94.60
2018-11-26T17:00:37.689Z,94.70
2018-11-26T17:03:06.933Z,94.90
2018-11-26T17:05:42.193Z,95.00
2018-11-26T17:08:13.376Z,95.10
2018-11-26T17:10:42.923Z,95.20
2018-11-26T17:13:14.791Z,95.20
2018-11-26T17:15:43.617Z,95.30
2018-11-26T17:18:12.440Z,95.50
2018-11-26T17:20:41.659Z,95.80
2018-11-26T17:23:10.466Z,96.00
2018-11-26T17:25:39.275Z,96.00
2018-11-26T17:28:08.850Z,96.00
2018-11-26T17:30:39.152Z,96.00
2018-11-26T17:33:09.708Z,95.80
2018-11-26T17:35:39.906Z,95.70
2018-11-26T17:38:09.050Z,95.50
2018-11-26T17:40:39.019Z,95.40
2018-11-26T17:43:08.967Z,95.40
2018-11-26T17:45:38.024Z,95.20
2018-11-26T17:48:07.860Z,95.20
2018-11-26T17:50:38.469Z,95.20
2018-11-26T17:53:13.773Z,95.20
2018-11-26T17:55:53.288Z,95.20
2018-11-26T17:58:23.755Z,95.10
2018-11-26T18:01:02.179Z,95.10
2018-11-26T18:03:31.169Z,95.00
2018-11-26T18:06:00.433Z,94.90
2018-11-26T18:08:29.434Z,94.90
2018-11-26T18:10:58.291Z,94.90
2018-11-26T18:13:27.049Z,95.00
2018-11-26T18:15:55.822Z,95.00
2018-11-26T18:18:24.639Z,94.90
2018-11-26T18:20:54.284Z,95.10
2018-11-26T18:23:24.589Z,95.20
2018-11-26T18:26:06.198Z,95.20
2018-11-26T18:28:35.236Z,95.30
2018-11-26T18:31:04.337Z,95.30
2018-11-26T18:33:33.526Z,95.40
2018-11-26T18:36:02.634Z,95.50
2018-11-26T18:38:32.088Z,95.50
2018-11-26T18:41:00.914Z,95.70
2018-11-26T18:43:29.803Z,95.90
2018-11-26T18:46:02.400Z,96.10
2018-11-26T18:48:31.282Z,96.40
2018-11-26T18:51:00.417Z,96.60
2018-11-26T18:53:29.275Z,96.70
2018-11-26T18:55:58.028Z,96.80
2018-11-26T18:58:26.753Z,96.90
2018-11-26T19:00:59.388Z,96.80
2018-11-26T19:03:28.176Z,96.80
2018-11-26T19:05:57.017Z,96.80
2018-11-26T19:08:25.914Z,96.80
2018-11-26T19:11:01.454Z,96.90
2018-11-26T19:13:34.390Z,96.90
2018-11-26T19:16:12.815Z,97.00
2018-11-26T19:18:42.134Z,97.10
2018-11-26T19:21:14.020Z,97.10
2018-11-26T19:23:42.823Z,97.10
2018-11-26T19:26:11.599Z,97.10
2018-11-26T19:28:40.320Z,97.10
2018-11-26T19:31:09.675Z,97.00
2018-11-26T19:33:38.762Z,96.90
2018-11-26T19:36:08.071Z,96.90
2018-11-26T19:38:37.097Z,96.80
2018-11-26T19:41:08.257Z,96.80
2018-11-26T19:43:37.097Z,96.80
2018-11-26T19:46:06.354Z,96.80
2018-11-26T19:48:35.794Z,96.80
2018-11-26T19:51:04.650Z,96.80
2018-11-26T19:53:33.452Z,96.60
2018-11-26T19:56:05.122Z,96.60
2018-11-26T19:58:33.979Z,96.60
2018-11-26T20:01:02.854Z,96.60
2018-11-26T20:03:34.609Z,96.70
2018-11-26T20:06:11.361Z,96.60
2018-11-26T20:08:41.157Z,96.70
2018-11-26T20:11:11.646Z,96.70
2018-11-26T20:13:41.879Z,96.70
2018-11-26T20:16:14.064Z,96.90
2018-11-26T20:18:42.946Z,97.00
2018-11-26T20:21:11.849Z,97.10
2018-11-26T20:23:40.611Z,97.20
2018-11-26T20:26:09.374Z,97.20
2018-11-26T20:28:38.185Z,97.20
2018-11-26T20:31:08.058Z,97.10
2018-11-26T20:33:43.294Z,97.10
2018-11-26T20:36:14.239Z,97.10
2018-11-26T20:38:44.080Z,97.10
2018-11-26T20:41:14.360Z,97.00
2018-11-26T20:43:44.214Z,97.00
2018-11-26T20:46:12.953Z,96.80
2018-11-26T20:48:44.338Z,97.00
2018-11-26T20:51:13.237Z,96.80
2018-11-26T20:53:43.255Z,96.70
2018-11-26T20:56:16.478Z,96.70
2018-11-26T20:58:46.308Z,96.80
2018-11-26T21:01:15.491Z,96.70
2018-11-26T21:03:44.422Z,96.80
2018-11-26T21:06:13.298Z,96.80
2018-11-26T21:08:42.345Z,96.80
2018-11-26T21:11:11.180Z,97.00
2018-11-26T21:13:40.032Z,97.00
2018-11-26T21:16:09.043Z,97.00
2018-11-26T21:18:37.888Z,97.10
2018-11-26T21:21:07.963Z,97.10
2018-11-26T21:23:37.449Z,97.20
2018-11-26T21:26:08.646Z,97.40
2018-11-26T21:28:37.440Z,97.40
2018-11-26T21:31:06.858Z,97.40
2018-11-26T21:33:35.624Z,97.40
2018-11-26T21:36:04.435Z,97.40
2018-11-26T21:38:34.791Z,97.40
2018-11-26T21:41:03.575Z,97.40
2018-11-26T21:43:32.362Z,97.40
2018-11-26T21:46:02.043Z,97.40
2018-11-26T21:48:30.838Z,97.30
2018-11-26T21:50:59.571Z,97.30
2018-11-26T21:53:28.383Z,97.30
2018-11-26T21:55:57.134Z,97.20
2018-11-26T21:58:25.986Z,97.20
2018-11-26T22:00:56.719Z,97.10
2018-11-26T22:03:30.431Z,97.10
2018-11-26T22:05:55.112Z,97.00
2018-11-26T22:08:23.952Z,96.90
2018-11-26T22:10:53.145Z,96.90
2018-11-26T22:13:22.566Z,96.80
2018-11-26T22:15:51.319Z,96.80
2018-11-26T22:18:20.229Z,96.70
2018-11-26T22:20:50.073Z,96.70
2018-11-26T22:23:26.686Z,96.70
2018-11-26T22:25:55.628Z,96.70
2018-11-26T22:28:24.499Z,96.70
2018-11-26T22:30:53.303Z,96.60
2018-11-26T22:33:23.448Z,96.70
2018-11-26T22:35:52.303Z,96.70
2018-11-26T22:38:21.042Z,96.70
2018-11-26T22:40:49.829Z,96.80
2018-11-26T22:43:18.627Z,96.80
2018-11-26T22:45:47.360Z,96.90
2018-11-26T22:48:16.115Z,96.90
2018-11-26T22:50:45.810Z,97.00
2018-11-26T22:53:15.279Z,97.00
2018-11-26T22:55:44.369Z,97.10
2018-11-26T22:58:14.585Z,97.20
2018-11-26T23:00:52.438Z,97.20
2018-11-26T23:03:22.807Z,97.30
2018-11-26T23:05:51.605Z,97.30
2018-11-26T23:08:20.446Z,97.40
2018-11-26T23:10:49.335Z,97.50
2018-11-26T23:13:18.129Z,97.50
2018-11-26T23:15:47.048Z,97.50
2018-11-26T23:18:15.804Z,97.50
2018-11-26T23:20:44.560Z,97.50
2018-11-26T23:23:13.884Z,97.30
2018-11-26T23:25:43.528Z,97.20
2018-11-26T23:28:12.356Z,97.20
2018-11-26T23:30:41.248Z,97.20
2018-11-26T23:33:10.069Z,97.20
2018-11-26T23:35:39.051Z,97.20
2018-11-26T23:38:07.777Z,97.20
2018-11-26T23:40:36.567Z,97.10
2018-11-26T23:43:06.028Z,97.00
2018-11-26T23:45:34.800Z,96.90
2018-11-26T23:48:03.573Z,96.90
2018-11-26T23:50:32.423Z,97.00
2018-11-26T23:53:01.517Z,97.00
2018-11-26T23:55:30.304Z,97.00
2018-11-26T23:57:59.125Z,96.90
